Arendal — 3EWV4 — position and weather

sailwx.info

Track history (hours):
 
Tides and Currents Weather Stations Pressure Air Temp Water Temp Dewpoint Dewpoint Depression Visibility Wind Speed Wind Dir Waves Ship Positions

Arendal

Last reported at 2017-Oct-18 03:12 UTC. Time now 2017-Oct-18 06:10 UTC.
Position N 05°26' E 000°38'.

Length 183 m; draft 9.5 m.

Type: Tanker. MMSI: 370297000.

Date/timePositionNaut miles runAvg speedWind from/ knotsBaromVisibWave heightAir tempDewpointWater temp
2017-Oct-18 03:12N 05°26' E 000°38'1 1.6
2017-Oct-18 02:38N 05°26' E 000°37'0 1.7
2017-Oct-18 02:29N 05°26' E 000°37'1 1.7
2017-Oct-18 01:58N 05°26' E 000°36'1 1.7
2017-Oct-18 01:29N 05°25' E 000°36'1 1.8
2017-Oct-18 00:55N 05°25' E 000°35'1 1.8
2017-Oct-18 00:30N 05°25' E 000°34'1 1.8
2017-Oct-18 00:00N 05°25' E 000°33'1 1.6
2017-Oct-17 23:30N 05°24' E 000°32'0 0.9
2017-Oct-17 23:00N 05°24' E 000°32'2 4.0
2017-Oct-17 22:30N 05°24' E 000°34'29 4.1
2017-Oct-17 15:20N 05°08' E 000°58'0 1.5
2017-Oct-17 15:01N 05°08' E 000°58'1 1.5
2017-Oct-17 14:23N 05°08' E 000°57'5 1.4
2017-Oct-17 10:35N 05°09' E 000°51'0 1.5
2017-Oct-17 10:20N 05°09' E 000°51'1 1.5
2017-Oct-17 09:37N 05°09' E 000°50'0 1.6
2017-Oct-17 09:28N 05°09' E 000°50'1 1.5
2017-Oct-17 08:50N 05°09' E 000°49'1 1.5
2017-Oct-17 08:29N 05°09' E 000°48'2 1.2
2017-Oct-17 06:51N 05°09' E 000°46'6 0.5
2017-Oct-16 20:37N 05°11' E 000°41'1 1.3
2017-Oct-16 20:04N 05°11' E 000°40'0 1.2
2017-Oct-16 19:56N 05°11' E 000°40'0 1.2
2017-Oct-16 19:30N 05°11' E 000°40'1 1.2
2017-Oct-16 19:00N 05°11' E 000°39'1 1.3
2017-Oct-16 17:59N 05°11' E 000°38'1 1.3
2017-Oct-16 17:27N 05°11' E 000°37'0 0.3
2017-Oct-16 16:43N 05°11' E 000°37'2410.7
2017-Oct-16 14:27N 05°15' E 001°01'29 1.5
2017-Oct-15 19:08N 05°34' E 000°39'1 1.1
2017-Oct-15 18:26N 05°34' E 000°38'2 1.0
2017-Oct-15 16:44N 05°32' E 000°38'0 0.9
2017-Oct-15 16:23N 05°32' E 000°37'0 0.9
2017-Oct-15 16:00N 05°32' E 000°37'1 0.9
2017-Oct-15 15:12N 05°31' E 000°37'0 1.0
2017-Oct-15 14:56N 05°31' E 000°37'1 1.0
2017-Oct-15 13:58N 05°30' E 000°36'0 1.0
2017-Oct-15 13:30N 05°30' E 000°36'3 1.3
2017-Oct-15 11:16N 05°28' E 000°33'1 1.5
2017-Oct-15 10:56N 05°28' E 000°33'1 1.5
2017-Oct-15 10:31N 05°27' E 000°32'1 1.4
2017-Oct-15 10:00N 05°27' E 000°32'1 1.4
2017-Oct-15 09:30N 05°27' E 000°31'1 1.3
2017-Oct-15 09:01N 05°26' E 000°31'1 1.3
2017-Oct-15 08:30N 05°26' E 000°30'1 1.4
2017-Oct-15 08:00N 05°25' E 000°30'1 1.3
2017-Oct-15 07:30N 05°25' E 000°29'1 1.3
2017-Oct-15 07:01N 05°24' E 000°29'1 1.3
2017-Oct-15 06:30N 05°24' E 000°28'1 1.2
2017-Oct-15 06:00N 05°23' E 000°28'1 1.3
2017-Oct-15 05:30N 05°23' E 000°27'1 1.4
2017-Oct-15 05:00N 05°22' E 000°27'1 1.2
2017-Oct-15 04:30N 05°22' E 000°27'1 1.2
2017-Oct-15 04:00N 05°21' E 000°26'1 1.1
2017-Oct-15 03:30N 05°21' E 000°26'1 1.0
2017-Oct-15 03:01N 05°21' E 000°25'1 1.0
2017-Oct-15 02:31N 05°20' E 000°25'0 0.9
2017-Oct-15 02:01N 05°20' E 000°25'0 0.9
2017-Oct-15 01:31N 05°20' E 000°25'1 1.0
2017-Oct-15 01:01N 05°19' E 000°24'1 1.0
2017-Oct-15 00:31N 05°19' E 000°24'0 0.9
2017-Oct-15 00:00N 05°19' E 000°23'0 0.9
2017-Oct-14 23:30N 05°19' E 000°23'0 0.9
2017-Oct-14 23:00N 05°19' E 000°22'0 0.8
2017-Oct-14 22:31N 05°18' E 000°22'1 1.6
2017-Oct-14 22:00N 05°19' E 000°22'611.3
2017-Oct-14 21:31N 05°25' E 000°21'612.3
2017-Oct-14 21:01N 05°31' E 000°21'611.3
2017-Oct-14 20:31N 05°36' E 000°21'1 2.8
2017-Oct-14 20:01N 05°38' E 000°21'0 0.9
2017-Oct-14 19:30N 05°37' E 000°21'0 0.9
2017-Oct-14 19:01N 05°37' E 000°21'0 1.0
2017-Oct-14 18:31N 05°37' E 000°21'0 0.9
2017-Oct-14 18:01N 05°36' E 000°21'0 0.8
2017-Oct-14 17:30N 05°36' E 000°21'0 0.9
2017-Oct-14 17:01N 05°35' E 000°21'0 0.9
2017-Oct-14 16:31N 05°35' E 000°21'0 0.8
2017-Oct-14 16:01N 05°34' E 000°20'0 0.8
2017-Oct-14 15:31N 05°34' E 000°20'0 0.9
2017-Oct-14 15:01N 05°34' E 000°20'0 0.8
2017-Oct-14 14:30N 05°33' E 000°20'0 0.8
2017-Oct-14 14:01N 05°33' E 000°20'0 0.8
2017-Oct-14 13:31N 05°33' E 000°19'0 0.9
2017-Oct-14 13:01N 05°32' E 000°19'0 0.9
2017-Oct-14 12:30N 05°32' E 000°19'0 0.9
2017-Oct-14 12:00N 05°32' E 000°18'0 0.9
2017-Oct-14 11:31N 05°31' E 000°18'0 0.9
2017-Oct-14 11:00N 05°31' E 000°18'0 0.9
2017-Oct-14 10:31N 05°31' E 000°18'0 0.8
2017-Oct-14 10:00N 05°31' E 000°17'0 1.0
2017-Oct-14 09:30N 05°31' E 000°17'3 6.4
2017-Oct-14 09:01N 05°32' E 000°14'612.2
2017-Oct-14 08:30N 05°35' E 000°09'5 9.6
2017-Oct-14 08:01N 05°39' E 000°05'1 1.7
2017-Oct-14 07:31N 05°39' E 000°04'0 0.0
2017-Oct-14 07:00N 05°39' E 000°04'0 0.0
2017-Oct-14 06:30N 05°39' E 000°04'0 0.0
2017-Oct-14 06:00N 05°39' E 000°04'0 0.0
2017-Oct-14 05:30N 05°39' E 000°04'0 0.0
2017-Oct-14 05:00N 05°39' E 000°04'0 0.0
2017-Oct-14 04:30N 05°39' E 000°04'0 0.0
2017-Oct-14 04:00N 05°39' E 000°04'0 0.0
2017-Oct-14 03:30N 05°39' E 000°04'0 0.0
2017-Oct-14 03:00N 05°39' E 000°04'0 0.0
2017-Oct-14 02:30N 05°39' E 000°04'0 0.0
2017-Oct-14 02:00N 05°39' E 000°04'0 0.0
2017-Oct-14 01:30N 05°39' E 000°04'0 0.0
2017-Oct-14 01:00N 05°39' E 000°04'0 0.0
2017-Oct-14 00:29N 05°39' E 000°04'0 0.0
2017-Oct-14 00:00N 05°39' E 000°04'0 0.0
2017-Oct-13 23:30N 05°39' E 000°04'0 0.0
2017-Oct-13 23:00N 05°39' E 000°04'0 0.0
2017-Oct-13 22:27N 05°39' E 000°04'0 0.0
2017-Oct-13 22:00N 05°39' E 000°04'0 0.0
2017-Oct-13 21:30N 05°39' E 000°04'0 0.0
2017-Oct-13 21:00N 05°39' E 000°04'0 0.0
2017-Oct-13 20:30N 05°39' E 000°04'0 0.0
2017-Oct-13 20:00N 05°39' E 000°04'0 0.0
2017-Oct-13 19:30N 05°39' E 000°04'0 0.0
2017-Oct-13 19:00N 05°39' E 000°04'0 0.0
2017-Oct-13 18:30N 05°39' E 000°04'0 0.0
2017-Oct-13 18:00N 05°39' E 000°04'0 0.0
2017-Oct-13 17:30N 05°39' E 000°04'0 0.0
2017-Oct-13 17:00N 05°39' E 000°04'0 0.0
2017-Oct-13 16:30N 05°39' E 000°04'0 0.0
2017-Oct-13 16:00N 05°39' E 000°04'0 0.0
2017-Oct-13 15:27N 05°39' E 000°04'0 0.0
2017-Oct-13 15:00N 05°39' E 000°04'0 0.0
2017-Oct-13 14:30N 05°39' E 000°04'0 0.0
2017-Oct-13 14:00N 05°39' E 000°04'0 0.0
2017-Oct-13 13:30N 05°39' E 000°04'0 0.0
2017-Oct-13 12:59N 05°39' E 000°04'0 0.0
2017-Oct-13 12:29N 05°39' E 000°04'0 0.0
2017-Oct-13 12:00N 05°39' E 000°04'0 0.0
2017-Oct-13 11:30N 05°39' E 000°04'0 0.0
2017-Oct-13 11:00N 05°39' E 000°04'0 0.0
2017-Oct-13 10:30N 05°39' E 000°04'0 0.0
2017-Oct-13 10:00N 05°39' E 000°04'0 0.0
2017-Oct-13 09:30N 05°39' E 000°04'0 0.0
2017-Oct-13 09:00N 05°39' E 000°04'0 0.0
2017-Oct-13 08:30N 05°39' E 000°04'0 0.0
2017-Oct-13 08:00N 05°39' E 000°04'0 0.0
2017-Oct-13 07:24N 05°39' E 000°04'0 0.0
2017-Oct-13 07:00N 05°39' E 000°04'0 0.0
2017-Oct-13 06:30N 05°39' E 000°04'0 0.0
2017-Oct-13 06:00N 05°39' E 000°04'0 0.0
2017-Oct-13 05:30N 05°39' E 000°04'0 0.0
2017-Oct-13 05:00N 05°39' E 000°04'0 0.0
2017-Oct-13 04:30N 05°39' E 000°04'0 0.0
2017-Oct-13 04:00N 05°39' E 000°04'0 0.0
2017-Oct-13 03:30N 05°39' E 000°04'0 0.0
2017-Oct-13 03:00N 05°39' E 000°04'0 0.0
2017-Oct-13 02:30N 05°39' E 000°04'0 0.0
2017-Oct-13 02:00N 05°39' E 000°04'0 0.0
2017-Oct-13 01:30N 05°39' E 000°04'0 0.0
2017-Oct-13 01:00N 05°39' E 000°04'0 0.0
2017-Oct-13 00:30N 05°39' E 000°04'0 0.0
2017-Oct-13 00:00N 05°39' E 000°04'0 0.0
2017-Oct-12 23:30N 05°39' E 000°04'0 0.0
2017-Oct-12 23:00N 05°39' E 000°04'0 0.0
2017-Oct-12 22:30N 05°39' E 000°04'0 0.0
2017-Oct-12 22:00N 05°39' E 000°04'0 0.0
2017-Oct-12 21:30N 05°39' E 000°04'0 0.0
2017-Oct-12 21:00N 05°39' E 000°04'0 0.0
2017-Oct-12 20:30N 05°39' E 000°04'0 0.0
2017-Oct-12 20:00N 05°39' E 000°04'0 0.0
2017-Oct-12 19:30N 05°39' E 000°04'0 0.0
2017-Oct-12 19:00N 05°39' E 000°04'0 0.0
2017-Oct-12 18:30N 05°39' E 000°04'0 0.0
2017-Oct-12 18:00N 05°39' E 000°04'0 0.0
2017-Oct-12 17:30N 05°39' E 000°04'0 0.0
2017-Oct-12 17:00N 05°39' E 000°04'0 0.0
2017-Oct-12 16:30N 05°39' E 000°04'0 0.0
2017-Oct-12 16:00N 05°39' E 000°04'0 0.0
2017-Oct-12 15:30N 05°39' E 000°04'0 0.0
2017-Oct-12 15:00N 05°39' E 000°04'0 0.0
2017-Oct-12 14:30N 05°39' E 000°04'0 0.0
2017-Oct-12 14:00N 05°39' E 000°04'0 0.0
2017-Oct-12 13:30N 05°39' E 000°04'0 0.0
2017-Oct-12 13:00N 05°39' E 000°04'0 0.0
2017-Oct-12 12:30N 05°39' E 000°04'0 0.0
2017-Oct-12 11:54N 05°39' E 000°04'0 0.0
2017-Oct-12 11:30N 05°39' E 000°04'0 0.0
2017-Oct-12 11:00N 05°39' E 000°04'0 0.1
2017-Oct-12 10:30N 05°39' E 000°04'1 1.4
2017-Oct-12 10:00N 05°39' E 000°05'2 4.8
2017-Oct-12 09:30N 05°36' E 000°06'1 1.6
2017-Oct-12 09:00N 05°37' E 000°05'4 8.7
2017-Oct-12 08:30N 05°34' E 000°02'0 0.4
2017-Oct-12 08:00N 05°34' E 000°02'0 0.1
2017-Oct-12 07:30N 05°34' E 000°02'0 0.0
2017-Oct-12 07:00N 05°34' E 000°02'0 0.2
2017-Oct-12 06:29N 05°34' E 000°02'0 0.0
2017-Oct-12 05:59N 05°34' E 000°02'0 0.0
2017-Oct-12 05:29N 05°34' E 000°02'0 0.0
2017-Oct-12 04:59N 05°34' E 000°02'0 0.0
2017-Oct-12 04:29N 05°34' E 000°02'0 0.0
2017-Oct-12 03:59N 05°34' E 000°02'0 0.0
2017-Oct-12 03:29N 05°34' E 000°02'0 0.0
2017-Oct-12 02:59N 05°34' E 000°02'0 0.0
2017-Oct-12 02:29N 05°34' E 000°02'0 0.0
2017-Oct-12 01:59N 05°34' E 000°02'0 0.0
2017-Oct-12 01:29N 05°34' E 000°02'0 0.0
2017-Oct-12 00:59N 05°34' E 000°02'0 0.0
2017-Oct-12 00:29N 05°34' E 000°02'0 0.0
2017-Oct-11 23:59N 05°34' E 000°02'0 0.0
2017-Oct-11 23:29N 05°34' E 000°02'0 0.1
2017-Oct-11 22:59N 05°34' E 000°02'0 0.1
2017-Oct-11 22:29N 05°34' E 000°02'0 0.0
2017-Oct-11 21:59N 05°34' E 000°02'0 0.0
2017-Oct-11 21:26N 05°34' E 000°02'0 0.0
2017-Oct-11 20:59N 05°34' E 000°02'0 0.0
2017-Oct-11 20:29N 05°34' E 000°02'0 0.0
2017-Oct-11 19:59N 05°34' E 000°02'0 0.0
2017-Oct-11 19:29N 05°34' E 000°02'0 0.0
2017-Oct-11 18:59N 05°34' E 000°02'0 0.0
2017-Oct-11 18:29N 05°34' E 000°02'0 0.0
2017-Oct-11 17:59N 05°34' E 000°02'0 0.0
2017-Oct-11 17:29N 05°34' E 000°02'0 0.0
2017-Oct-11 16:59N 05°34' E 000°02'0 0.0
2017-Oct-10 23:59N 05°34' E 000°02'0 0.0
2017-Oct-10 23:30N 05°34' E 000°02'0 0.0
2017-Oct-10 23:00N 05°34' E 000°02'0 0.0
2017-Oct-10 22:30N 05°34' E 000°02'0 0.0
2017-Oct-10 22:00N 05°34' E 000°02'0 0.0
2017-Oct-10 21:30N 05°34' E 000°02'0 0.0
2017-Oct-10 21:00N 05°34' E 000°02'0 0.0
2017-Oct-10 20:30N 05°34' E 000°02'0 0.0
2017-Oct-10 20:00N 05°34' E 000°02'0 0.0
2017-Oct-10 19:30N 05°34' E 000°02'0 0.0
2017-Oct-10 19:00N 05°34' E 000°02'0 0.0
2017-Oct-10 18:30N 05°34' E 000°02'0 0.0
2017-Oct-10 18:00N 05°34' E 000°02'0 0.0
2017-Oct-10 17:30N 05°34' E 000°02'0 0.0
2017-Oct-10 17:00N 05°34' E 000°02'0 0.0
2017-Oct-10 16:30N 05°34' E 000°02'0 0.0
2017-Oct-10 16:00N 05°34' E 000°02'0 0.0
2017-Oct-10 15:30N 05°34' E 000°02'0 0.0
2017-Oct-10 15:00N 05°34' E 000°02'0 0.0
2017-Oct-10 14:00N 05°34' E 000°02'0 0.0
2017-Oct-10 13:30N 05°34' E 000°02'0 0.0
2017-Oct-10 13:00N 05°34' E 000°02'0 0.0
2017-Oct-10 12:30N 05°34' E 000°02'0 0.0
2017-Oct-10 12:00N 05°34' E 000°02'0 0.0
2017-Oct-10 11:30N 05°34' E 000°02'0 0.0
2017-Oct-10 11:00N 05°34' E 000°02'0 0.0
2017-Oct-10 10:30N 05°34' E 000°02'0 0.0
2017-Oct-10 10:00N 05°34' E 000°02'0 0.0
2017-Oct-10 09:30N 05°34' E 000°02'0 0.0
2017-Oct-10 09:00N 05°34' E 000°02'0 0.0
2017-Oct-10 08:27N 05°34' E 000°02'0 0.0
2017-Oct-10 08:00N 05°34' E 000°02'0 0.0
2017-Oct-10 07:30N 05°34' E 000°02'0 0.0
2017-Oct-10 07:00N 05°34' E 000°02'0 0.0
2017-Oct-10 06:30N 05°34' E 000°02'0 0.0
2017-Oct-10 06:00N 05°34' E 000°02'0 0.0
2017-Oct-10 05:30N 05°34' E 000°02'0 0.0
2017-Oct-10 05:00N 05°34' E 000°02'0 0.0
2017-Oct-10 04:30N 05°34' E 000°02'0 0.0
2017-Oct-10 04:00N 05°34' E 000°02'0 0.0
2017-Oct-10 03:30N 05°34' E 000°02'0 0.0
2017-Oct-10 03:00N 05°34' E 000°02'0 0.0
2017-Oct-10 02:30N 05°34' E 000°02'0 0.0
2017-Oct-10 01:57N 05°34' E 000°02'0 0.0
2017-Oct-10 01:30N 05°34' E 000°02'0 0.0
2017-Oct-10 01:00N 05°34' E 000°02'0 0.0
2017-Oct-10 00:30N 05°34' E 000°02'0 0.0
2017-Oct-10 00:00N 05°34' E 000°02'0 0.0
2017-Oct-09 23:27N 05°34' E 000°02'0 0.0
2017-Oct-09 23:00N 05°34' E 000°02'0 0.0
2017-Oct-09 22:30N 05°34' E 000°02'0 0.0
2017-Oct-09 22:00N 05°34' E 000°02'0 0.0
2017-Oct-09 21:30N 05°34' E 000°02'0 0.0
2017-Oct-09 21:00N 05°34' E 000°02'0 0.0
2017-Oct-09 20:30N 05°34' E 000°02'0 0.0
2017-Oct-09 20:00N 05°34' E 000°02'0 0.0
2017-Oct-09 19:30N 05°34' E 000°02'0 0.0
2017-Oct-09 19:00N 05°34' E 000°02'0 0.0
2017-Oct-09 18:30N 05°34' E 000°02'0 0.0
2017-Oct-09 18:00N 05°34' E 000°02'0 0.0
2017-Oct-09 17:30N 05°34' E 000°02'0 0.0
2017-Oct-09 17:00N 05°34' E 000°02'0 0.0
2017-Oct-09 16:30N 05°34' E 000°02'0 0.0
2017-Oct-09 16:00N 05°34' E 000°02'0 0.0
2017-Oct-09 15:30N 05°34' E 000°02'0 0.0
2017-Oct-09 15:00N 05°34' E 000°02'0 0.0
2017-Oct-09 14:30N 05°34' E 000°02'0 0.0
2017-Oct-09 14:00N 05°34' E 000°02'0 0.0
2017-Oct-09 13:30N 05°34' E 000°02'0 0.0
2017-Oct-09 13:00N 05°34' E 000°02'0 0.0
2017-Oct-09 12:27N 05°34' E 000°02'0 0.0
2017-Oct-09 12:00N 05°34' E 000°02'0 0.0
2017-Oct-09 11:30N 05°34' E 000°02'0 0.1
2017-Oct-09 11:00N 05°34' E 000°02'0 0.0
2017-Oct-09 10:30N 05°34' E 000°02'0 0.0
2017-Oct-09 10:00N 05°34' E 000°02'0 0.0
2017-Oct-09 09:30N 05°34' E 000°02'0 0.0
2017-Oct-09 09:00N 05°34' E 000°02'0 0.0
2017-Oct-09 08:30N 05°34' E 000°02'0 0.0
2017-Oct-09 08:00N 05°34' E 000°02'0 0.0
2017-Oct-09 07:30N 05°34' E 000°02'0 0.0
2017-Oct-09 07:00N 05°34' E 000°02'0 0.0
2017-Oct-09 06:30N 05°34' E 000°02'0 0.0
2017-Oct-09 06:00N 05°34' E 000°02'0 0.0
2017-Oct-09 05:30N 05°34' E 000°02'0 0.0
2017-Oct-09 05:00N 05°34' E 000°02'0 0.0
2017-Oct-09 04:30N 05°34' E 000°02'0 0.0
2017-Oct-09 04:00N 05°34' E 000°02'0 0.0
2017-Oct-09 03:30N 05°34' E 000°02'0 0.0
2017-Oct-09 03:00N 05°34' E 000°02'0 0.0
2017-Oct-09 02:30N 05°34' E 000°02'0 0.0
2017-Oct-09 02:00N 05°34' E 000°02'0 0.0
2017-Oct-09 01:30N 05°34' E 000°02'0 0.0
2017-Oct-09 01:00N 05°34' E 000°02'0 0.0
2017-Oct-09 00:30N 05°34' E 000°02'0 0.0
2017-Oct-09 00:00N 05°34' E 000°02'0 0.0
2017-Oct-08 23:30N 05°34' E 000°02'0 0.0
2017-Oct-08 23:00N 05°34' E 000°02'0 0.0
2017-Oct-08 22:30N 05°34' E 000°02'0 0.0
2017-Oct-08 22:00N 05°34' E 000°02'0 0.0
2017-Oct-08 21:30N 05°34' E 000°02'0 0.0
2017-Oct-08 21:00N 05°34' E 000°02'0 0.0
2017-Oct-08 20:30N 05°34' E 000°02'0 0.0
2017-Oct-08 19:57N 05°34' E 000°02'0 0.0
2017-Oct-08 19:30N 05°34' E 000°02'0 0.0
2017-Oct-08 19:00N 05°34' E 000°02'0 0.0
2017-Oct-08 18:30N 05°34' E 000°02'0 0.0
2017-Oct-08 18:00N 05°34' E 000°02'0 0.0
2017-Oct-08 17:30N 05°34' E 000°02'0 0.0
2017-Oct-08 17:00N 05°34' E 000°02'0 0.0
2017-Oct-08 16:30N 05°34' E 000°02'0 0.0
2017-Oct-08 16:00N 05°34' E 000°02'0 0.0
2017-Oct-08 15:30N 05°34' E 000°02'0 0.0
2017-Oct-08 15:00N 05°34' E 000°02'0 0.0
2017-Oct-08 14:27N 05°34' E 000°02'0 0.0
2017-Oct-08 14:00N 05°34' E 000°02'0 0.0
2017-Oct-08 13:30N 05°34' E 000°02'0 0.0
2017-Oct-08 13:00N 05°34' E 000°02'0 0.0
2017-Oct-08 12:30N 05°34' E 000°02'0 0.0
2017-Oct-08 12:00N 05°34' E 000°02'0 0.0
2017-Oct-08 11:30N 05°34' E 000°02'0 0.0
2017-Oct-08 11:00N 05°34' E 000°02'0 0.0
2017-Oct-08 10:30N 05°34' E 000°02'0 0.0
2017-Oct-08 10:00N 05°34' E 000°02'0 0.0
2017-Oct-08 09:30N 05°34' E 000°02'0 0.0
2017-Oct-08 09:00N 05°34' E 000°02'0 0.0
2017-Oct-08 08:30N 05°34' E 000°02'0 0.0
2017-Oct-08 08:00N 05°34' E 000°02'0 0.0
2017-Oct-08 07:30N 05°34' E 000°02'0 0.0
2017-Oct-08 07:00N 05°34' E 000°02'0 0.0
2017-Oct-08 06:30N 05°34' E 000°02'0 0.0
2017-Oct-08 06:00N 05°34' E 000°02'0 0.0
2017-Oct-08 05:30N 05°34' E 000°02'0 0.0
2017-Oct-08 05:00N 05°34' E 000°02'0 0.1
2017-Oct-08 04:30N 05°34' E 000°02'0 0.0
2017-Oct-08 04:00N 05°34' E 000°02'0 0.3
2017-Oct-08 03:30N 05°34' E 000°02'  
Track history (hours):
 
Tides and Currents Weather Stations Pressure Air Temp Water Temp Dewpoint Dewpoint Depression Visibility Wind Speed Wind Dir Waves Ship Positions

Arendal

Last reported at 2017-Oct-18 03:12 UTC. Time now 2017-Oct-18 06:10 UTC.
Position N 05°26' E 000°38'.

Length 183 m; draft 9.5 m.

Type: Tanker. MMSI: 370297000.

Date/timePositionNaut miles runAvg speedWind from/ knotsBaromVisibWave heightAir tempDewpointWater temp
2017-Oct-18 03:12N 05°26' E 000°38'1 1.6
2017-Oct-18 02:38N 05°26' E 000°37'0 1.7
2017-Oct-18 02:29N 05°26' E 000°37'1 1.7
2017-Oct-18 01:58N 05°26' E 000°36'1 1.7
2017-Oct-18 01:29N 05°25' E 000°36'1 1.8
2017-Oct-18 00:55N 05°25' E 000°35'1 1.8
2017-Oct-18 00:30N 05°25' E 000°34'1 1.8
2017-Oct-18 00:00N 05°25' E 000°33'1 1.6
2017-Oct-17 23:30N 05°24' E 000°32'0 0.9
2017-Oct-17 23:00N 05°24' E 000°32'2 4.0
2017-Oct-17 22:30N 05°24' E 000°34'29 4.1
2017-Oct-17 15:20N 05°08' E 000°58'0 1.5
2017-Oct-17 15:01N 05°08' E 000°58'1 1.5
2017-Oct-17 14:23N 05°08' E 000°57'5 1.4
2017-Oct-17 10:35N 05°09' E 000°51'0 1.5
2017-Oct-17 10:20N 05°09' E 000°51'1 1.5
2017-Oct-17 09:37N 05°09' E 000°50'0 1.6
2017-Oct-17 09:28N 05°09' E 000°50'1 1.5
2017-Oct-17 08:50N 05°09' E 000°49'1 1.5
2017-Oct-17 08:29N 05°09' E 000°48'2 1.2
2017-Oct-17 06:51N 05°09' E 000°46'6 0.5
2017-Oct-16 20:37N 05°11' E 000°41'1 1.3
2017-Oct-16 20:04N 05°11' E 000°40'0 1.2
2017-Oct-16 19:56N 05°11' E 000°40'0 1.2
2017-Oct-16 19:30N 05°11' E 000°40'1 1.2
2017-Oct-16 19:00N 05°11' E 000°39'1 1.3
2017-Oct-16 17:59N 05°11' E 000°38'1 1.3
2017-Oct-16 17:27N 05°11' E 000°37'0 0.3
2017-Oct-16 16:43N 05°11' E 000°37'2410.7
2017-Oct-16 14:27N 05°15' E 001°01'29 1.5
2017-Oct-15 19:08N 05°34' E 000°39'1 1.1
2017-Oct-15 18:26N 05°34' E 000°38'2 1.0
2017-Oct-15 16:44N 05°32' E 000°38'0 0.9
2017-Oct-15 16:23N 05°32' E 000°37'0 0.9
2017-Oct-15 16:00N 05°32' E 000°37'1 0.9
2017-Oct-15 15:12N 05°31' E 000°37'0 1.0
2017-Oct-15 14:56N 05°31' E 000°37'1 1.0
2017-Oct-15 13:58N 05°30' E 000°36'0 1.0
2017-Oct-15 13:30N 05°30' E 000°36'3 1.3
2017-Oct-15 11:16N 05°28' E 000°33'1 1.5
2017-Oct-15 10:56N 05°28' E 000°33'1 1.5
2017-Oct-15 10:31N 05°27' E 000°32'1 1.4
2017-Oct-15 10:00N 05°27' E 000°32'1 1.4
2017-Oct-15 09:30N 05°27' E 000°31'1 1.3
2017-Oct-15 09:01N 05°26' E 000°31'1 1.3
2017-Oct-15 08:30N 05°26' E 000°30'1 1.4
2017-Oct-15 08:00N 05°25' E 000°30'1 1.3
2017-Oct-15 07:30N 05°25' E 000°29'1 1.3
2017-Oct-15 07:01N 05°24' E 000°29'1 1.3
2017-Oct-15 06:30N 05°24' E 000°28'1 1.2
2017-Oct-15 06:00N 05°23' E 000°28'1 1.3
2017-Oct-15 05:30N 05°23' E 000°27'1 1.4
2017-Oct-15 05:00N 05°22' E 000°27'1 1.2
2017-Oct-15 04:30N 05°22' E 000°27'1 1.2
2017-Oct-15 04:00N 05°21' E 000°26'1 1.1
2017-Oct-15 03:30N 05°21' E 000°26'1 1.0
2017-Oct-15 03:01N 05°21' E 000°25'1 1.0
2017-Oct-15 02:31N 05°20' E 000°25'0 0.9
2017-Oct-15 02:01N 05°20' E 000°25'0 0.9
2017-Oct-15 01:31N 05°20' E 000°25'1 1.0
2017-Oct-15 01:01N 05°19' E 000°24'1 1.0
2017-Oct-15 00:31N 05°19' E 000°24'0 0.9
2017-Oct-15 00:00N 05°19' E 000°23'0 0.9
2017-Oct-14 23:30N 05°19' E 000°23'0 0.9
2017-Oct-14 23:00N 05°19' E 000°22'0 0.8
2017-Oct-14 22:31N 05°18' E 000°22'1 1.6
2017-Oct-14 22:00N 05°19' E 000°22'611.3
2017-Oct-14 21:31N 05°25' E 000°21'612.3
2017-Oct-14 21:01N 05°31' E 000°21'611.3
2017-Oct-14 20:31N 05°36' E 000°21'1 2.8
2017-Oct-14 20:01N 05°38' E 000°21'0 0.9
2017-Oct-14 19:30N 05°37' E 000°21'0 0.9
2017-Oct-14 19:01N 05°37' E 000°21'0 1.0
2017-Oct-14 18:31N 05°37' E 000°21'0 0.9
2017-Oct-14 18:01N 05°36' E 000°21'0 0.8
2017-Oct-14 17:30N 05°36' E 000°21'0 0.9
2017-Oct-14 17:01N 05°35' E 000°21'0 0.9
2017-Oct-14 16:31N 05°35' E 000°21'0 0.8
2017-Oct-14 16:01N 05°34' E 000°20'0 0.8
2017-Oct-14 15:31N 05°34' E 000°20'0 0.9
2017-Oct-14 15:01N 05°34' E 000°20'0 0.8
2017-Oct-14 14:30N 05°33' E 000°20'0 0.8
2017-Oct-14 14:01N 05°33' E 000°20'0 0.8
2017-Oct-14 13:31N 05°33' E 000°19'0 0.9
2017-Oct-14 13:01N 05°32' E 000°19'0 0.9
2017-Oct-14 12:30N 05°32' E 000°19'0 0.9
2017-Oct-14 12:00N 05°32' E 000°18'0 0.9
2017-Oct-14 11:31N 05°31' E 000°18'0 0.9
2017-Oct-14 11:00N 05°31' E 000°18'0 0.9
2017-Oct-14 10:31N 05°31' E 000°18'0 0.8
2017-Oct-14 10:00N 05°31' E 000°17'0 1.0
2017-Oct-14 09:30N 05°31' E 000°17'3 6.4
2017-Oct-14 09:01N 05°32' E 000°14'612.2
2017-Oct-14 08:30N 05°35' E 000°09'5 9.6
2017-Oct-14 08:01N 05°39' E 000°05'1 1.7
2017-Oct-14 07:31N 05°39' E 000°04'0 0.0
2017-Oct-14 07:00N 05°39' E 000°04'0 0.0
2017-Oct-14 06:30N 05°39' E 000°04'0 0.0
2017-Oct-14 06:00N 05°39' E 000°04'0 0.0
2017-Oct-14 05:30N 05°39' E 000°04'0 0.0
2017-Oct-14 05:00N 05°39' E 000°04'0 0.0
2017-Oct-14 04:30N 05°39' E 000°04'0 0.0
2017-Oct-14 04:00N 05°39' E 000°04'0 0.0
2017-Oct-14 03:30N 05°39' E 000°04'0 0.0
2017-Oct-14 03:00N 05°39' E 000°04'0 0.0
2017-Oct-14 02:30N 05°39' E 000°04'0 0.0
2017-Oct-14 02:00N 05°39' E 000°04'0 0.0
2017-Oct-14 01:30N 05°39' E 000°04'0 0.0
2017-Oct-14 01:00N 05°39' E 000°04'0 0.0
2017-Oct-14 00:29N 05°39' E 000°04'0 0.0
2017-Oct-14 00:00N 05°39' E 000°04'0 0.0
2017-Oct-13 23:30N 05°39' E 000°04'0 0.0
2017-Oct-13 23:00N 05°39' E 000°04'0 0.0
2017-Oct-13 22:27N 05°39' E 000°04'0 0.0
2017-Oct-13 22:00N 05°39' E 000°04'0 0.0
2017-Oct-13 21:30N 05°39' E 000°04'0 0.0
2017-Oct-13 21:00N 05°39' E 000°04'0 0.0
2017-Oct-13 20:30N 05°39' E 000°04'0 0.0
2017-Oct-13 20:00N 05°39' E 000°04'0 0.0
2017-Oct-13 19:30N 05°39' E 000°04'0 0.0
2017-Oct-13 19:00N 05°39' E 000°04'0 0.0
2017-Oct-13 18:30N 05°39' E 000°04'0 0.0
2017-Oct-13 18:00N 05°39' E 000°04'0 0.0
2017-Oct-13 17:30N 05°39' E 000°04'0 0.0
2017-Oct-13 17:00N 05°39' E 000°04'0 0.0
2017-Oct-13 16:30N 05°39' E 000°04'0 0.0
2017-Oct-13 16:00N 05°39' E 000°04'0 0.0
2017-Oct-13 15:27N 05°39' E 000°04'0 0.0
2017-Oct-13 15:00N 05°39' E 000°04'0 0.0
2017-Oct-13 14:30N 05°39' E 000°04'0 0.0
2017-Oct-13 14:00N 05°39' E 000°04'0 0.0
2017-Oct-13 13:30N 05°39' E 000°04'0 0.0
2017-Oct-13 12:59N 05°39' E 000°04'0 0.0
2017-Oct-13 12:29N 05°39' E 000°04'0 0.0
2017-Oct-13 12:00N 05°39' E 000°04'0 0.0
2017-Oct-13 11:30N 05°39' E 000°04'0 0.0
2017-Oct-13 11:00N 05°39' E 000°04'0 0.0
2017-Oct-13 10:30N 05°39' E 000°04'0 0.0
2017-Oct-13 10:00N 05°39' E 000°04'0 0.0
2017-Oct-13 09:30N 05°39' E 000°04'0 0.0
2017-Oct-13 09:00N 05°39' E 000°04'0 0.0
2017-Oct-13 08:30N 05°39' E 000°04'0 0.0
2017-Oct-13 08:00N 05°39' E 000°04'0 0.0
2017-Oct-13 07:24N 05°39' E 000°04'0 0.0
2017-Oct-13 07:00N 05°39' E 000°04'0 0.0
2017-Oct-13 06:30N 05°39' E 000°04'0 0.0
2017-Oct-13 06:00N 05°39' E 000°04'0 0.0
2017-Oct-13 05:30N 05°39' E 000°04'0 0.0
2017-Oct-13 05:00N 05°39' E 000°04'0 0.0
2017-Oct-13 04:30N 05°39' E 000°04'0 0.0
2017-Oct-13 04:00N 05°39' E 000°04'0 0.0
2017-Oct-13 03:30N 05°39' E 000°04'0 0.0
2017-Oct-13 03:00N 05°39' E 000°04'0 0.0
2017-Oct-13 02:30N 05°39' E 000°04'0 0.0
2017-Oct-13 02:00N 05°39' E 000°04'0 0.0
2017-Oct-13 01:30N 05°39' E 000°04'0 0.0
2017-Oct-13 01:00N 05°39' E 000°04'0 0.0
2017-Oct-13 00:30N 05°39' E 000°04'0 0.0
2017-Oct-13 00:00N 05°39' E 000°04'0 0.0
2017-Oct-12 23:30N 05°39' E 000°04'0 0.0
2017-Oct-12 23:00N 05°39' E 000°04'0 0.0
2017-Oct-12 22:30N 05°39' E 000°04'0 0.0
2017-Oct-12 22:00N 05°39' E 000°04'0 0.0
2017-Oct-12 21:30N 05°39' E 000°04'0 0.0
2017-Oct-12 21:00N 05°39' E 000°04'0 0.0
2017-Oct-12 20:30N 05°39' E 000°04'0 0.0
2017-Oct-12 20:00N 05°39' E 000°04'0 0.0
2017-Oct-12 19:30N 05°39' E 000°04'0 0.0
2017-Oct-12 19:00N 05°39' E 000°04'0 0.0
2017-Oct-12 18:30N 05°39' E 000°04'0 0.0
2017-Oct-12 18:00N 05°39' E 000°04'0 0.0
2017-Oct-12 17:30N 05°39' E 000°04'0 0.0
2017-Oct-12 17:00N 05°39' E 000°04'0 0.0
2017-Oct-12 16:30N 05°39' E 000°04'0 0.0
2017-Oct-12 16:00N 05°39' E 000°04'0 0.0
2017-Oct-12 15:30N 05°39' E 000°04'0 0.0
2017-Oct-12 15:00N 05°39' E 000°04'0 0.0
2017-Oct-12 14:30N 05°39' E 000°04'0 0.0
2017-Oct-12 14:00N 05°39' E 000°04'0 0.0
2017-Oct-12 13:30N 05°39' E 000°04'0 0.0
2017-Oct-12 13:00N 05°39' E 000°04'0 0.0
2017-Oct-12 12:30N 05°39' E 000°04'0 0.0
2017-Oct-12 11:54N 05°39' E 000°04'0 0.0
2017-Oct-12 11:30N 05°39' E 000°04'0 0.0
2017-Oct-12 11:00N 05°39' E 000°04'0 0.1
2017-Oct-12 10:30N 05°39' E 000°04'1 1.4
2017-Oct-12 10:00N 05°39' E 000°05'2 4.8
2017-Oct-12 09:30N 05°36' E 000°06'1 1.6
2017-Oct-12 09:00N 05°37' E 000°05'4 8.7
2017-Oct-12 08:30N 05°34' E 000°02'0 0.4
2017-Oct-12 08:00N 05°34' E 000°02'0 0.1
2017-Oct-12 07:30N 05°34' E 000°02'0 0.0
2017-Oct-12 07:00N 05°34' E 000°02'0 0.2
2017-Oct-12 06:29N 05°34' E 000°02'0 0.0
2017-Oct-12 05:59N 05°34' E 000°02'0 0.0
2017-Oct-12 05:29N 05°34' E 000°02'0 0.0
2017-Oct-12 04:59N 05°34' E 000°02'0 0.0
2017-Oct-12 04:29N 05°34' E 000°02'0 0.0
2017-Oct-12 03:59N 05°34' E 000°02'0 0.0
2017-Oct-12 03:29N 05°34' E 000°02'0 0.0
2017-Oct-12 02:59N 05°34' E 000°02'0 0.0
2017-Oct-12 02:29N 05°34' E 000°02'0 0.0
2017-Oct-12 01:59N 05°34' E 000°02'0 0.0
2017-Oct-12 01:29N 05°34' E 000°02'0 0.0
2017-Oct-12 00:59N 05°34' E 000°02'0 0.0
2017-Oct-12 00:29N 05°34' E 000°02'0 0.0
2017-Oct-11 23:59N 05°34' E 000°02'0 0.0
2017-Oct-11 23:29N 05°34' E 000°02'0 0.1
2017-Oct-11 22:59N 05°34' E 000°02'0 0.1
2017-Oct-11 22:29N 05°34' E 000°02'0 0.0
2017-Oct-11 21:59N 05°34' E 000°02'0 0.0
2017-Oct-11 21:26N 05°34' E 000°02'0 0.0
2017-Oct-11 20:59N 05°34' E 000°02'0 0.0
2017-Oct-11 20:29N 05°34' E 000°02'0 0.0
2017-Oct-11 19:59N 05°34' E 000°02'0 0.0
2017-Oct-11 19:29N 05°34' E 000°02'0 0.0
2017-Oct-11 18:59N 05°34' E 000°02'0 0.0
2017-Oct-11 18:29N 05°34' E 000°02'0 0.0
2017-Oct-11 17:59N 05°34' E 000°02'0 0.0
2017-Oct-11 17:29N 05°34' E 000°02'0 0.0
2017-Oct-11 16:59N 05°34' E 000°02'0 0.0
2017-Oct-10 23:59N 05°34' E 000°02'0 0.0
2017-Oct-10 23:30N 05°34' E 000°02'0 0.0
2017-Oct-10 23:00N 05°34' E 000°02'0 0.0
2017-Oct-10 22:30N 05°34' E 000°02'0 0.0
2017-Oct-10 22:00N 05°34' E 000°02'0 0.0
2017-Oct-10 21:30N 05°34' E 000°02'0 0.0
2017-Oct-10 21:00N 05°34' E 000°02'0 0.0
2017-Oct-10 20:30N 05°34' E 000°02'0 0.0
2017-Oct-10 20:00N 05°34' E 000°02'0 0.0
2017-Oct-10 19:30N 05°34' E 000°02'0 0.0
2017-Oct-10 19:00N 05°34' E 000°02'0 0.0
2017-Oct-10 18:30N 05°34' E 000°02'0 0.0
2017-Oct-10 18:00N 05°34' E 000°02'0 0.0
2017-Oct-10 17:30N 05°34' E 000°02'0 0.0
2017-Oct-10 17:00N 05°34' E 000°02'0 0.0
2017-Oct-10 16:30N 05°34' E 000°02'0 0.0
2017-Oct-10 16:00N 05°34' E 000°02'0 0.0
2017-Oct-10 15:30N 05°34' E 000°02'0 0.0
2017-Oct-10 15:00N 05°34' E 000°02'0 0.0
2017-Oct-10 14:00N 05°34' E 000°02'0 0.0
2017-Oct-10 13:30N 05°34' E 000°02'0 0.0
2017-Oct-10 13:00N 05°34' E 000°02'0 0.0
2017-Oct-10 12:30N 05°34' E 000°02'0 0.0
2017-Oct-10 12:00N 05°34' E 000°02'0 0.0
2017-Oct-10 11:30N 05°34' E 000°02'0 0.0
2017-Oct-10 11:00N 05°34' E 000°02'0 0.0
2017-Oct-10 10:30N 05°34' E 000°02'0 0.0
2017-Oct-10 10:00N 05°34' E 000°02'0 0.0
2017-Oct-10 09:30N 05°34' E 000°02'0 0.0
2017-Oct-10 09:00N 05°34' E 000°02'0 0.0
2017-Oct-10 08:27N 05°34' E 000°02'0 0.0
2017-Oct-10 08:00N 05°34' E 000°02'0 0.0
2017-Oct-10 07:30N 05°34' E 000°02'0 0.0
2017-Oct-10 07:00N 05°34' E 000°02'0 0.0
2017-Oct-10 06:30N 05°34' E 000°02'0 0.0
2017-Oct-10 06:00N 05°34' E 000°02'0 0.0
2017-Oct-10 05:30N 05°34' E 000°02'0 0.0
2017-Oct-10 05:00N 05°34' E 000°02'0 0.0
2017-Oct-10 04:30N 05°34' E 000°02'0 0.0
2017-Oct-10 04:00N 05°34' E 000°02'0 0.0
2017-Oct-10 03:30N 05°34' E 000°02'0 0.0
2017-Oct-10 03:00N 05°34' E 000°02'0 0.0
2017-Oct-10 02:30N 05°34' E 000°02'0 0.0
2017-Oct-10 01:57N 05°34' E 000°02'0 0.0
2017-Oct-10 01:30N 05°34' E 000°02'0 0.0
2017-Oct-10 01:00N 05°34' E 000°02'0 0.0
2017-Oct-10 00:30N 05°34' E 000°02'0 0.0
2017-Oct-10 00:00N 05°34' E 000°02'0 0.0
2017-Oct-09 23:27N 05°34' E 000°02'0 0.0
2017-Oct-09 23:00N 05°34' E 000°02'0 0.0
2017-Oct-09 22:30N 05°34' E 000°02'0 0.0
2017-Oct-09 22:00N 05°34' E 000°02'0 0.0
2017-Oct-09 21:30N 05°34' E 000°02'0 0.0
2017-Oct-09 21:00N 05°34' E 000°02'0 0.0
2017-Oct-09 20:30N 05°34' E 000°02'0 0.0
2017-Oct-09 20:00N 05°34' E 000°02'0 0.0
2017-Oct-09 19:30N 05°34' E 000°02'0 0.0
2017-Oct-09 19:00N 05°34' E 000°02'0 0.0
2017-Oct-09 18:30N 05°34' E 000°02'0 0.0
2017-Oct-09 18:00N 05°34' E 000°02'0 0.0
2017-Oct-09 17:30N 05°34' E 000°02'0 0.0
2017-Oct-09 17:00N 05°34' E 000°02'0 0.0
2017-Oct-09 16:30N 05°34' E 000°02'0 0.0
2017-Oct-09 16:00N 05°34' E 000°02'0 0.0
2017-Oct-09 15:30N 05°34' E 000°02'0 0.0
2017-Oct-09 15:00N 05°34' E 000°02'0 0.0
2017-Oct-09 14:30N 05°34' E 000°02'0 0.0
2017-Oct-09 14:00N 05°34' E 000°02'0 0.0
2017-Oct-09 13:30N 05°34' E 000°02'0 0.0
2017-Oct-09 13:00N 05°34' E 000°02'0 0.0
2017-Oct-09 12:27N 05°34' E 000°02'0 0.0
2017-Oct-09 12:00N 05°34' E 000°02'0 0.0
2017-Oct-09 11:30N 05°34' E 000°02'0 0.1
2017-Oct-09 11:00N 05°34' E 000°02'0 0.0
2017-Oct-09 10:30N 05°34' E 000°02'0 0.0
2017-Oct-09 10:00N 05°34' E 000°02'0 0.0
2017-Oct-09 09:30N 05°34' E 000°02'0 0.0
2017-Oct-09 09:00N 05°34' E 000°02'0 0.0
2017-Oct-09 08:30N 05°34' E 000°02'0 0.0
2017-Oct-09 08:00N 05°34' E 000°02'0 0.0
2017-Oct-09 07:30N 05°34' E 000°02'0 0.0
2017-Oct-09 07:00N 05°34' E 000°02'0 0.0
2017-Oct-09 06:30N 05°34' E 000°02'0 0.0
2017-Oct-09 06:00N 05°34' E 000°02'0 0.0
2017-Oct-09 05:30N 05°34' E 000°02'0 0.0
2017-Oct-09 05:00N 05°34' E 000°02'0 0.0
2017-Oct-09 04:30N 05°34' E 000°02'0 0.0
2017-Oct-09 04:00N 05°34' E 000°02'0 0.0
2017-Oct-09 03:30N 05°34' E 000°02'0 0.0
2017-Oct-09 03:00N 05°34' E 000°02'0 0.0
2017-Oct-09 02:30N 05°34' E 000°02'0 0.0
2017-Oct-09 02:00N 05°34' E 000°02'0 0.0
2017-Oct-09 01:30N 05°34' E 000°02'0 0.0
2017-Oct-09 01:00N 05°34' E 000°02'0 0.0
2017-Oct-09 00:30N 05°34' E 000°02'0 0.0
2017-Oct-09 00:00N 05°34' E 000°02'0 0.0
2017-Oct-08 23:30N 05°34' E 000°02'0 0.0
2017-Oct-08 23:00N 05°34' E 000°02'0 0.0
2017-Oct-08 22:30N 05°34' E 000°02'0 0.0
2017-Oct-08 22:00N 05°34' E 000°02'0 0.0
2017-Oct-08 21:30N 05°34' E 000°02'0 0.0
2017-Oct-08 21:00N 05°34' E 000°02'0 0.0
2017-Oct-08 20:30N 05°34' E 000°02'0 0.0
2017-Oct-08 19:57N 05°34' E 000°02'0 0.0
2017-Oct-08 19:30N 05°34' E 000°02'0 0.0
2017-Oct-08 19:00N 05°34' E 000°02'0 0.0
2017-Oct-08 18:30N 05°34' E 000°02'0 0.0
2017-Oct-08 18:00N 05°34' E 000°02'0 0.0
2017-Oct-08 17:30N 05°34' E 000°02'0 0.0
2017-Oct-08 17:00N 05°34' E 000°02'0 0.0
2017-Oct-08 16:30N 05°34' E 000°02'0 0.0
2017-Oct-08 16:00N 05°34' E 000°02'0 0.0
2017-Oct-08 15:30N 05°34' E 000°02'0 0.0
2017-Oct-08 15:00N 05°34' E 000°02'0 0.0
2017-Oct-08 14:27N 05°34' E 000°02'0 0.0
2017-Oct-08 14:00N 05°34' E 000°02'0 0.0
2017-Oct-08 13:30N 05°34' E 000°02'0 0.0
2017-Oct-08 13:00N 05°34' E 000°02'0 0.0
2017-Oct-08 12:30N 05°34' E 000°02'0 0.0
2017-Oct-08 12:00N 05°34' E 000°02'0 0.0
2017-Oct-08 11:30N 05°34' E 000°02'0 0.0
2017-Oct-08 11:00N 05°34' E 000°02'0 0.0
2017-Oct-08 10:30N 05°34' E 000°02'0 0.0
2017-Oct-08 10:00N 05°34' E 000°02'0 0.0
2017-Oct-08 09:30N 05°34' E 000°02'0 0.0
2017-Oct-08 09:00N 05°34' E 000°02'0 0.0
2017-Oct-08 08:30N 05°34' E 000°02'0 0.0
2017-Oct-08 08:00N 05°34' E 000°02'0 0.0
2017-Oct-08 07:30N 05°34' E 000°02'0 0.0
2017-Oct-08 07:00N 05°34' E 000°02'0 0.0
2017-Oct-08 06:30N 05°34' E 000°02'0 0.0
2017-Oct-08 06:00N 05°34' E 000°02'0 0.0
2017-Oct-08 05:30N 05°34' E 000°02'0 0.0
2017-Oct-08 05:00N 05°34' E 000°02'0 0.1
2017-Oct-08 04:30N 05°34' E 000°02'0 0.0
2017-Oct-08 04:00N 05°34' E 000°02'0 0.3
2017-Oct-08 03:30N 05°34' E 000°02'  

Dump ship's entire track history